Estación Meteorológica Peña el Pijo (Robertgarden) [ 08/15/18 18:33:17 CEST ]

Fecha Hora Presion(HPa) Temp (°C) Humedad % Rocio (°C) Viento ( m/s) Direccion Lluvia 1Hora(mm) Lluvia 24H(mm) LLuvia Total(mm)
2018-Aug-06 01:01:41 1013.500 19.6 55 10.3         269.36
2018-Aug-06 02:01:39 1013.300 18.0 58 9.6         269.36
2018-Aug-06 03:01:46 1012.800 17.2 62 9.8         269.36
2018-Aug-06 04:02:00 1012.800 16.2 65 9.6         269.36
2018-Aug-06 05:01:48 1012.500 15.8 66 9.5         269.36
2018-Aug-06 06:01:37 1012.500 14.9 69 9.3         269.36
2018-Aug-06 07:01:47 1012.400 14.8 70 9.4         269.36
2018-Aug-06 08:01:57 1012.500 15.2 70 9.8         269.36
2018-Aug-06 09:01:30 1012.600 21.3 63 13.8         269.36
2018-Aug-06 10:01:38 1012.400 28.3 46 15.5         269.36
2018-Aug-06 11:01:27 1012.000 33.5 33 14.9         269.36
2018-Aug-06 12:01:15 1011.900 35.6 27 12.9         269.36
2018-Aug-06 13:01:26 1011.600 36.4 24 12.4         269.36
2018-Aug-06 14:02:10 1011.400 33.3 25 10.4         269.36
2018-Aug-06 15:01:54 1010.700 36.3 21 10.4         269.36
2018-Aug-06 16:02:01 1011.100 26.3 44 13.0     0.51 0.51 269.87
2018-Aug-06 17:01:47 1010.500 32.4 35 14.9       0.51 269.87
2018-Aug-06 18:01:38 1010.100 33.8 28 12.6       0.51 269.87
2018-Aug-06 19:01:39 1009.900 31.9 29 11.6       0.51 269.87
2018-Aug-06 20:01:45 1009.700 29.2 36 12.5       0.51 269.87
2018-Aug-06 21:01:54 1010.300 25.9 41 11.6       0.51 269.87
2018-Aug-06 22:01:47 1010.900 22.2 52 11.8       0.51 269.87
2018-Aug-06 23:01:46 1011.900 20.6 58 12.0       0.51 269.87

Temperatura Máxima:36°    Temperatura Mínima:14°
Presión Máxima:1013.500 Hpa    Presión Mínima:1009.700 Hpa


Volver